Time;durP1;ratioP1;P1;durP2;ratioP2;P2;SDS_P1;SDS_P2;PMS_P1;PMS_P2;Temp;Humidity;BMP_temperature;BMP_pressure;BME280_temperature;BME280_humidity;BME280_pressure;Samples;Min_cycle;Max_cycle;Signal;HPM_P1;HPM_P2
2021/08/06 00:01:25;;;;;;;;;0.00;0.00;;;;;27.12;40.86;99564.78;5057707;28;45796;-66
2021/08/06 00:03:56;;;;;;;;;0.00;0.00;;;;;27.14;40.98;99573.75;5075660;28;45423;-66
2021/08/06 00:06:27;;;;;;;;;0.00;0.00;;;;;27.14;40.93;99573.75;5075643;28;45429;-66
2021/08/06 00:08:56;;;;;;;;;0.00;0.00;;;;;27.11;40.47;99569.38;5075478;28;45473;-66
2021/08/06 00:11:28;;;;;;;;;0.00;0.00;;;;;27.12;41.00;99573.84;5075765;28;45495;-67
2021/08/06 00:13:54;;;;;;;;;0.00;0.00;;;;;27.12;40.81;99572.97;5075516;28;45449;-66
2021/08/06 00:16:22;;;;;;;;;0.00;0.00;;;;;27.12;41.05;99567.53;5075090;28;45824;-66
2021/08/06 00:18:48;;;;;;;;;0.00;0.00;;;;;27.12;41.05;99575.72;5075092;28;45440;-66
2021/08/06 00:21:13;;;;;;;;;0.00;0.00;;;;;27.12;40.61;99567.53;5075590;28;45416;-66
2021/08/06 00:23:38;;;;;;;;;0.00;0.00;;;;;27.12;41.06;99572.97;5075163;28;45728;-66
2021/08/06 00:26:04;;;;;;;;;0.00;0.00;;;;;27.11;40.52;99571.25;5075397;28;45420;-66
2021/08/06 00:28:29;;;;;;;;;0.00;0.00;;;;;27.13;40.45;99577.47;5075399;28;44858;-66
2021/08/06 00:30:55;;;;;;;;;0.00;0.00;;;;;27.10;40.97;99567.63;5075595;28;45505;-66
2021/08/06 00:33:20;;;;;;;;;0.00;0.00;;;;;27.12;40.56;99568.38;5056812;28;47291;-66
2021/08/06 00:35:45;;;;;;;;;0.00;0.00;;;;;27.11;40.51;99569.38;5075276;28;45538;-67
2021/08/06 00:38:11;;;;;;;;;0.00;0.00;;;;;27.12;41.05;99570.25;5075302;28;45422;-66
2021/08/06 00:40:36;;;;;;;;;0.00;0.00;;;;;27.12;40.65;99581.16;5057011;28;45444;-66
2021/08/06 00:43:02;;;;;;;;;0.00;0.00;;;;;27.12;40.52;99583.91;5074880;28;46089;-66
2021/08/06 00:45:27;;;;;;;;;0.00;0.00;;;;;27.12;40.86;99584.75;5073892;28;45489;-66
2021/08/06 00:47:54;;;;;;;;;0.00;0.00;;;;;27.12;40.75;99578.44;5075336;28;45437;-66
2021/08/06 00:50:20;;;;;;;;;0.00;0.00;;;;;27.13;41.14;99574.75;5075057;28;45416;-66
2021/08/06 00:52:45;;;;;;;;;0.00;0.00;;;;;27.11;40.51;99574.84;5074767;28;45680;-66
2021/08/06 00:55:11;;;;;;;;;0.00;0.00;;;;;27.11;41.24;99584.91;5074981;28;45711;-66
2021/08/06 00:57:37;;;;;;;;;0.00;0.00;;;;;27.13;40.99;99582.94;5074896;28;45452;-67
2021/08/06 01:00:09;;;;;;;;;0.00;0.00;;;;;27.12;40.96;99582.03;5075271;28;45507;-67
2021/08/06 01:03:26;;;;;;;;;0.00;0.00;;;;;27.14;41.13;99584.66;5073840;27;46314;-67
2021/08/06 01:06:10;;;;;;;;;0.00;0.00;;;;;27.13;41.16;99585.66;4992335;28;45523;-67
2021/08/06 01:08:56;;;;;;;;;0.00;0.00;;;;;27.12;40.99;99581.16;4992336;28;45581;-67
2021/08/06 01:11:25;;;;;;;;;0.00;0.00;;;;;27.12;40.74;99586.63;4992485;28;45497;-67
2021/08/06 01:13:54;;;;;;;;;0.00;0.00;;;;;27.12;40.55;99581.16;4992268;28;45607;-67
2021/08/06 01:16:27;;;;;;;;;0.00;0.00;;;;;27.13;41.20;99589.25;4992100;28;45732;-67
2021/08/06 01:19:04;;;;;;;;;0.00;0.00;;;;;27.12;40.53;99582.03;4992501;28;45518;-67
2021/08/06 01:21:44;;;;;;;;;0.00;0.00;;;;;27.12;40.81;99576.56;5008846;28;45555;-67
2021/08/06 01:24:13;;;;;;;;;0.00;0.00;;;;;27.12;40.71;99581.16;4992177;28;46016;-67
2021/08/06 01:26:41;;;;;;;;;0.00;0.00;;;;;27.11;41.18;99579.44;4992114;28;45455;-67
2021/08/06 01:29:08;;;;;;;;;0.00;0.00;;;;;27.14;40.51;99576.47;4977726;28;45494;-67
2021/08/06 01:31:34;;;;;;;;;0.00;0.00;;;;;27.11;40.61;99579.44;4995833;28;45543;-67
2021/08/06 01:33:59;;;;;;;;;0.00;0.00;;;;;27.12;40.51;99584.75;4995514;28;45506;-67
2021/08/06 01:36:25;;;;;;;;;0.00;0.00;;;;;27.12;41.20;99578.44;4995602;28;45097;-67
2021/08/06 01:38:53;;;;;;;;;0.00;0.00;;;;;27.12;40.36;99576.56;4995527;28;45572;-67
2021/08/06 01:41:26;;;;;;;;;0.00;0.00;;;;;27.14;40.58;99579.19;5042831;28;45666;-67
2021/08/06 01:44:12;;;;;;;;;0.00;0.00;;;;;27.13;40.52;99572.88;5055804;28;47038;-67
2021/08/06 01:46:59;;;;;;;;;0.00;0.00;;;;;27.12;41.12;99575.72;5057885;28;45508;-67
2021/08/06 01:49:40;;;;;;;;;0.00;0.00;;;;;27.12;40.91;99573.84;5056549;28;45366;-67
2021/08/06 01:52:09;;;;;;;;;0.00;0.00;;;;;27.11;40.87;99569.38;5073501;28;45743;-68
2021/08/06 01:54:37;;;;;;;;;0.00;0.00;;;;;27.13;40.66;99577.47;5057494;28;45423;-67
2021/08/06 01:57:06;;;;;;;;;0.00;0.00;;;;;27.11;40.65;99583.03;5056210;28;45404;-67
2021/08/06 01:59:31;;;;;;;;;0.00;0.00;;;;;27.10;40.73;99577.69;5057789;28;45474;-67
2021/08/06 02:01:58;;;;;;;;;0.00;0.00;;;;;27.12;40.43;99573.84;5057388;28;45480;-67
2021/08/06 02:04:25;;;;;;;;;0.00;0.00;;;;;27.10;41.04;99566.75;5057410;28;45426;-67
2021/08/06 02:06:51;;;;;;;;;0.00;0.00;;;;;27.11;40.53;99571.25;5057473;28;45451;-67
2021/08/06 02:09:18;;;;;;;;;0.00;0.00;;;;;27.11;40.76;99582.16;5057421;28;45520;-67
2021/08/06 02:11:44;;;;;;;;;0.00;0.00;;;;;27.11;40.58;99573.97;5057527;28;45408;-67
2021/08/06 02:14:12;;;;;;;;;0.00;0.00;;;;;27.11;41.09;99568.53;5056953;28;45535;-67
2021/08/06 02:16:42;;;;;;;;;0.00;0.00;;;;;27.11;41.10;99576.72;5057182;28;45496;-67
2021/08/06 02:19:11;;;;;;;;;0.00;0.00;;;;;27.10;40.83;99580.41;5057491;28;45416;-67
2021/08/06 02:21:38;;;;;;;;;0.00;0.00;;;;;27.10;41.04;99581.28;5057162;28;45440;-67
2021/08/06 02:24:07;;;;;;;;;0.00;0.00;;;;;27.10;40.56;99581.28;5056938;28;45774;-67
2021/08/06 02:26:34;;;;;;;;;0.00;0.00;;;;;27.08;40.64;99583.25;5057010;28;45459;-68
2021/08/06 02:29:07;;;;;;;;;0.00;0.00;;;;;27.11;40.64;99593.09;5056678;28;45796;-67
2021/08/06 02:31:33;;;;;;;;;0.00;0.00;;;;;27.08;40.62;99585.97;5057450;28;45392;-67
2021/08/06 02:34:00;;;;;;;;;0.00;0.00;;;;;27.10;40.73;99599.50;5055348;28;47045;-67
2021/08/06 02:36:26;;;;;;;;;0.00;0.00;;;;;27.10;40.66;99594.06;5056934;28;45470;-67
2021/08/06 02:38:57;;;;;;;;;0.00;0.00;;;;;27.10;41.09;99599.50;5056934;28;45438;-67
2021/08/06 02:41:22;;;;;;;;;0.00;0.00;;;;;27.09;40.93;99601.38;5056373;28;45413;-67
2021/08/06 02:43:48;;;;;;;;;0.00;0.00;;;;;27.10;40.60;99604.97;5057692;28;47225;-67
2021/08/06 02:46:15;;;;;;;;;0.00;0.00;;;;;27.10;41.15;99600.38;5077233;28;45493;-67
2021/08/06 02:48:40;;;;;;;;;0.00;0.00;;;;;27.09;40.62;99593.19;5077475;28;45480;-67
2021/08/06 02:51:07;;;;;;;;;0.00;0.00;;;;;27.09;40.96;99600.50;5077198;28;45453;-67
2021/08/06 02:53:32;;;;;;;;;0.00;0.00;;;;;27.08;40.71;99602.34;5076958;28;46119;-67
2021/08/06 02:55:58;;;;;;;;;0.00;0.00;;;;;27.09;40.91;99603.25;5076839;28;45489;-67
2021/08/06 02:58:24;;;;;;;;;0.00;0.00;;;;;27.10;40.51;99610.44;5077321;28;45483;-67
2021/08/06 03:00:49;;;;;;;;;0.00;0.00;;;;;27.08;40.60;99601.47;5077155;28;45338;-67
2021/08/06 03:03:15;;;;;;;;;0.00;0.00;;;;;27.08;41.22;99610.53;5076911;27;45397;-67
2021/08/06 03:05:40;;;;;;;;;0.00;0.00;;;;;27.08;41.19;99610.53;5076567;28;45404;-67
2021/08/06 03:08:06;;;;;;;;;0.00;0.00;;;;;27.07;40.69;99608.81;5076934;28;45726;-67
2021/08/06 03:10:33;;;;;;;;;0.00;0.00;;;;;27.09;41.03;99616.88;5076672;28;45399;-67
2021/08/06 03:12:59;;;;;;;;;0.00;0.00;;;;;27.06;40.55;99612.50;5058125;28;47300;-67
2021/08/06 03:15:25;;;;;;;;;0.00;0.00;;;;;27.07;40.85;99614.25;5058240;28;45737;-67
2021/08/06 03:17:51;;;;;;;;;0.00;0.00;;;;;27.07;40.88;99616.13;5077239;28;45444;-67
2021/08/06 03:20:20;;;;;;;;;0.00;0.00;;;;;27.08;40.70;99624.19;5076718;28;45694;-67
2021/08/06 03:22:45;;;;;;;;;0.00;0.00;;;;;27.06;40.57;99617.97;5076213;28;45386;-67
2021/08/06 03:25:11;;;;;;;;;0.00;0.00;;;;;27.08;41.00;99616.00;5076581;28;45458;-67
2021/08/06 03:27:38;;;;;;;;;0.00;0.00;;;;;27.08;41.01;99617.84;5076488;28;45420;-66
2021/08/06 03:30:09;;;;;;;;;0.00;0.00;;;;;27.07;40.63;99621.59;5076546;28;45600;-66
2021/08/06 03:32:35;;;;;;;;;0.00;0.00;;;;;27.06;40.89;99617.97;5076175;28;45726;-67
2021/08/06 03:35:00;;;;;;;;;0.00;0.00;;;;;27.07;40.67;99621.59;5076532;28;44758;-67
2021/08/06 03:37:26;;;;;;;;;0.00;0.00;;;;;27.06;41.04;99625.28;5076424;28;45736;-67
2021/08/06 03:39:53;;;;;;;;;0.00;0.00;;;;;27.06;40.71;99630.75;5076558;28;45412;-67
2021/08/06 03:42:18;;;;;;;;;0.00;0.00;;;;;27.07;41.02;99635.22;5076652;28;46017;-67
2021/08/06 03:44:44;;;;;;;;;0.00;0.00;;;;;27.06;40.62;99628.00;5074991;28;45597;-67
2021/08/06 03:47:09;;;;;;;;;0.00;0.00;;;;;27.03;40.73;99615.47;5076495;28;45436;-67
2021/08/06 03:49:35;;;;;;;;;0.00;0.00;;;;;27.04;41.00;99619.06;5076322;28;45485;-67
2021/08/06 03:52:00;;;;;;;;;0.00;0.00;;;;;27.05;41.17;99623.56;5056800;28;45505;-66
2021/08/06 03:54:25;;;;;;;;;0.00;0.00;;;;;27.04;40.62;99619.06;5075991;28;45436;-66
2021/08/06 03:56:51;;;;;;;;;0.00;0.00;;;;;27.04;40.99;99632.72;5076186;28;45464;-66
2021/08/06 03:59:16;;;;;;;;;0.00;0.00;;;;;27.03;41.19;99630.97;5075911;28;45444;-67
2021/08/06 04:01:41;;;;;;;;;0.00;0.00;;;;;27.03;41.06;99631.84;5057554;28;47249;-67
2021/08/06 04:04:08;;;;;;;;;0.00;0.00;;;;;27.03;40.89;99639.16;5076293;28;45421;-67
2021/08/06 04:06:33;;;;;;;;;0.00;0.00;;;;;27.03;41.19;99641.91;5075906;28;44787;-67
2021/08/06 04:08:59;;;;;;;;;0.00;0.00;;;;;27.01;40.88;99643.88;5076328;28;45463;-67
2021/08/06 04:11:26;;;;;;;;;0.00;0.00;;;;;27.03;41.24;99644.63;5057611;28;47203;-67
2021/08/06 04:13:51;;;;;;;;;0.00;0.00;;;;;26.99;41.23;99643.09;5076360;28;45423;-67
2021/08/06 04:16:16;;;;;;;;;0.00;0.00;;;;;27.01;40.54;99652.91;5076014;28;45413;-67
2021/08/06 04:18:42;;;;;;;;;0.00;0.00;;;;;27.01;40.67;99652.91;5075550;28;45524;-67
2021/08/06 04:21:07;;;;;;;;;0.00;0.00;;;;;27.01;41.37;99650.19;5057544;28;46159;-67
2021/08/06 04:23:34;;;;;;;;;0.00;0.00;;;;;27.01;41.30;99652.03;5075543;28;45351;-67
2021/08/06 04:25:59;;;;;;;;;0.00;0.00;;;;;27.01;40.84;99654.78;5075656;28;45524;-67
2021/08/06 04:28:25;;;;;;;;;0.00;0.00;;;;;27.00;40.65;99658.47;5075727;28;45832;-67
2021/08/06 04:30:50;;;;;;;;;0.00;0.00;;;;;26.99;40.80;99671.25;5075576;28;46091;-67
2021/08/06 04:33:15;;;;;;;;;0.00;0.00;;;;;26.98;41.18;99660.44;5075612;28;45417;-67
2021/08/06 04:35:42;;;;;;;;;0.00;0.00;;;;;26.98;41.16;99672.22;5076010;28;45454;-67
2021/08/06 04:38:08;;;;;;;;;0.00;0.00;;;;;26.96;40.67;99684.22;5075595;28;45461;-67
2021/08/06 04:40:33;;;;;;;;;0.00;0.00;;;;;26.96;40.88;99678.78;5075365;28;45429;-66
2021/08/06 04:42:58;;;;;;;;;0.00;0.00;;;;;26.97;41.31;99681.41;5075250;28;45955;-67
2021/08/06 04:45:24;;;;;;;;;0.00;0.00;;;;;26.97;40.86;99686.00;5074298;28;45464;-66
2021/08/06 04:47:52;;;;;;;;;0.00;0.00;;;;;26.97;40.70;99683.28;5057381;28;45520;-67
2021/08/06 04:50:20;;;;;;;;;0.00;0.00;;;;;26.96;40.93;99684.22;5075340;28;45460;-66
2021/08/06 04:52:46;;;;;;;;;0.00;0.00;;;;;26.95;41.11;99688.81;5056990;28;45454;-66
2021/08/06 04:55:12;;;;;;;;;0.00;0.00;;;;;26.94;40.82;99690.69;5075839;28;45475;-66
2021/08/06 04:57:38;;;;;;;;;0.00;0.00;;;;;26.93;40.90;99690.78;5075750;28;45441;-66
2021/08/06 05:00:06;;;;;;;;;0.33;0.00;;;;;26.94;40.78;99684.34;5074908;28;45488;-67
2021/08/06 05:02:31;;;;;;;;;0.00;0.00;;;;;26.93;40.81;99691.66;5075286;27;45349;-68
2021/08/06 05:04:57;;;;;;;;;0.00;0.00;;;;;26.91;40.82;99688.16;5078764;28;45333;-68
2021/08/06 05:07:23;;;;;;;;;0.00;0.00;;;;;26.92;40.81;99689.94;5078900;28;45320;-68
2021/08/06 05:09:48;;;;;;;;;0.00;0.00;;;;;26.91;41.19;99687.28;5078884;28;45715;-67
2021/08/06 05:12:14;;;;;;;;;0.00;0.00;;;;;26.91;41.08;99687.28;5060547;28;45478;-70
2021/08/06 05:14:40;;;;;;;;;0.00;0.00;;;;;26.91;40.79;99688.16;5078671;28;45483;-68
2021/08/06 05:17:06;;;;;;;;;0.00;0.00;;;;;26.91;41.17;99690.88;5078453;28;45479;-67
2021/08/06 05:19:31;;;;;;;;;0.00;0.00;;;;;26.91;41.21;99704.53;5078722;28;45445;-67
2021/08/06 05:21:57;;;;;;;;;0.00;0.00;;;;;26.90;40.61;99702.78;5078968;28;45383;-68
2021/08/06 05:24:22;;;;;;;;;0.00;0.00;;;;;26.90;41.06;99700.03;5078424;28;45394;-67
2021/08/06 05:26:47;;;;;;;;;0.00;0.00;;;;;26.90;40.80;99696.44;5078604;28;45487;-67
2021/08/06 05:29:14;;;;;;;;;0.00;0.00;;;;;26.91;40.79;99692.75;5078385;28;45451;-67
2021/08/06 05:31:39;;;;;;;;;0.00;0.00;;;;;26.90;41.11;99693.72;5078583;28;45457;-67
2021/08/06 05:34:05;;;;;;;;;0.00;0.00;;;;;26.91;40.99;99701.81;5078758;28;45456;-67
2021/08/06 05:36:30;;;;;;;;;0.00;0.00;;;;;26.91;40.76;99687.28;5060589;28;45486;-67
2021/08/06 05:38:55;;;;;;;;;0.00;0.00;;;;;26.89;40.97;99695.59;5078348;28;46094;-67
2021/08/06 05:41:21;;;;;;;;;0.00;0.00;;;;;26.90;40.71;99697.31;5076915;28;45659;-68
2021/08/06 05:43:46;;;;;;;;;0.00;0.00;;;;;26.89;41.14;99700.19;5072047;27;45408;-67
2021/08/06 05:46:12;;;;;;;;;0.00;0.00;;;;;26.73;40.37;99703.09;5061852;28;45406;-66
2021/08/06 05:48:37;;;;;;;;;0.00;0.00;;;;;26.55;40.38;99710.66;5072622;27;45519;-66
2021/08/06 05:51:02;;;;;;;;;0.00;0.00;;;;;26.38;40.50;99705.47;5071323;28;45413;-66
2021/08/06 05:53:29;;;;;;;;;0.00;0.00;;;;;26.25;41.33;99700.88;5077644;28;45332;-67
2021/08/06 05:55:55;;;;;;;;;0.00;0.00;;;;;26.13;41.22;99701.69;5078153;28;45528;-67
2021/08/06 05:58:20;;;;;;;;;0.33;0.33;;;;;26.14;41.43;99704.31;5074323;28;45647;-66
2021/08/06 06:00:46;;;;;;;;;0.33;0.00;;;;;26.10;41.33;99696.47;5071679;28;45492;-66
2021/08/06 06:03:11;;;;;;;;;0.00;0.00;;;;;26.07;41.44;99697.53;5077151;27;45402;-66
2021/08/06 06:05:44;;;;;;;;;0.00;0.00;;;;;26.02;41.31;99694.25;5082807;27;45429;-67
2021/08/06 06:08:10;;;;;;;;;0.00;0.00;;;;;26.00;41.66;99701.66;5070617;28;45920;-68
2021/08/06 06:10:36;;;;;;;;;1.00;0.00;;;;;26.00;41.52;99709.84;5070870;28;45795;-67
2021/08/06 06:13:01;;;;;;;;;0.00;0.00;;;;;25.95;41.63;99720.16;5065990;28;45536;-67
2021/08/06 06:15:28;;;;;;;;;0.00;0.00;;;;;25.88;41.50;99713.34;5066224;28;45479;-67
2021/08/06 06:17:53;;;;;;;;;1.00;0.00;;;;;25.79;41.76;99724.81;5077025;28;45965;-67
2021/08/06 06:20:25;;;;;;;;;0.67;0.33;;;;;25.73;41.79;99727.00;5059123;27;45496;-66
2021/08/06 06:22:51;;;;;;;;;0.00;0.00;;;;;25.69;42.03;99728.16;5074833;28;45503;-66
2021/08/06 06:25:17;;;;;;;;;0.00;0.00;;;;;25.62;41.93;99724.06;5069605;28;45529;-67
2021/08/06 06:28:02;;;;;;;;;0.00;0.00;;;;;25.62;42.07;99728.66;5054655;28;45728;-67
2021/08/06 06:30:30;;;;;;;;;1.33;0.33;;;;;25.50;42.09;99720.28;5069567;28;45481;-66
2021/08/06 06:32:57;;;;;;;;;0.00;0.00;;;;;25.60;42.32;99728.75;5070246;28;45665;-67
2021/08/06 06:35:23;;;;;;;;;0.00;0.00;;;;;25.67;42.36;99721.03;5073882;28;45332;-67
2021/08/06 06:37:49;;;;;;;;;0.00;0.00;;;;;25.77;42.26;99726.78;5060482;28;45948;-67
2021/08/06 06:40:17;;;;;;;;;0.00;0.00;;;;;25.86;42.56;99728.91;5072051;28;45521;-67
2021/08/06 06:42:44;;;;;;;;;0.00;0.00;;;;;25.92;42.04;99729.41;5060091;28;45462;-67
2021/08/06 06:45:10;;;;;;;;;0.00;0.00;;;;;25.99;41.97;99737.16;5055886;28;45507;-67
2021/08/06 06:47:37;;;;;;;;;0.00;0.00;;;;;26.08;42.20;99732.00;5038489;28;46862;-67
2021/08/06 06:50:04;;;;;;;;;0.00;0.00;;;;;26.12;41.83;99729.94;5038802;28;45472;-67
2021/08/06 06:52:31;;;;;;;;;0.00;0.00;;;;;26.20;41.66;99740.31;5057212;28;44918;-67
2021/08/06 06:54:56;;;;;;;;;0.00;0.00;;;;;26.25;41.81;99746.34;5057131;28;45459;-67
2021/08/06 06:57:22;;;;;;;;;0.00;0.00;;;;;26.27;41.66;99747.09;5056472;28;45911;-67
2021/08/06 06:59:47;;;;;;;;;0.00;0.00;;;;;26.33;41.62;99743.97;5038631;28;45520;-67
2021/08/06 07:02:12;;;;;;;;;0.00;0.00;;;;;26.37;41.67;99744.66;5056496;28;45473;-67
2021/08/06 07:04:38;;;;;;;;;0.00;0.00;;;;;26.41;41.42;99740.72;5057178;28;45461;-67
2021/08/06 07:07:03;;;;;;;;;0.00;0.00;;;;;26.44;41.26;99755.03;5056592;28;45528;-67
2021/08/06 07:09:28;;;;;;;;;0.00;0.00;;;;;26.48;41.36;99767.47;5056447;28;44961;-67
2021/08/06 07:11:54;;;;;;;;;0.00;0.00;;;;;26.49;41.51;99755.59;5057125;28;45563;-67
2021/08/06 07:14:19;;;;;;;;;0.00;0.00;;;;;26.52;41.57;99759.94;5056807;28;45548;-67
2021/08/06 07:16:46;;;;;;;;;0.00;0.00;;;;;26.55;41.33;99762.47;5056371;28;45387;-67
2021/08/06 07:19:12;;;;;;;;;0.00;0.00;;;;;26.58;41.25;99758.69;5055029;28;45433;-67
2021/08/06 07:21:48;;;;;;;;;0.00;0.00;;;;;26.60;41.34;99759.47;5056524;28;45426;-67
2021/08/06 07:24:13;;;;;;;;;0.00;0.00;;;;;26.62;41.57;99763.84;5056901;28;45463;-67
2021/08/06 07:26:39;;;;;;;;;0.00;0.00;;;;;26.63;41.32;99770.19;5055849;28;46162;-69
2021/08/06 07:29:05;;;;;;;;;0.00;0.00;;;;;26.64;41.19;99771.91;5055990;28;45629;-67
2021/08/06 07:31:30;;;;;;;;;0.00;0.00;;;;;26.66;41.13;99770.84;5056364;28;45528;-68
2021/08/06 07:33:56;;;;;;;;;0.00;0.00;;;;;26.67;42.11;99769.84;5068249;28;45482;-67
2021/08/06 07:36:29;;;;;;;;;0.00;0.00;;;;;26.68;42.10;99773.44;5075917;28;45485;-66
2021/08/06 07:38:54;;;;;;;;;0.00;0.00;;;;;26.69;41.40;99770.63;5071929;28;45483;-66
2021/08/06 07:41:20;;;;;;;;;0.00;0.00;;;;;26.72;41.93;99785.91;5064667;28;45577;-68
2021/08/06 07:43:45;;;;;;;;;0.00;0.00;;;;;26.73;41.86;99779.47;5076730;28;45792;-67
2021/08/06 07:46:17;;;;;;;;;0.00;0.00;;;;;26.74;41.78;99781.22;5054088;28;48213;-67
2021/08/06 07:48:50;;;;;;;;;0.00;0.00;;;;;26.74;41.84;99781.22;5035592;28;45386;-67
2021/08/06 07:51:15;;;;;;;;;0.00;0.00;;;;;26.75;41.68;99780.25;5040354;28;45447;-66
2021/08/06 07:53:41;;;;;;;;;0.00;0.00;;;;;26.76;41.27;99781.97;5056129;28;45448;-67
2021/08/06 07:56:06;;;;;;;;;0.00;0.00;;;;;26.79;41.28;99780.91;5055837;28;45784;-67
2021/08/06 07:58:32;;;;;;;;;0.00;0.00;;;;;26.79;41.98;99786.38;5054812;28;45440;-67
2021/08/06 08:00:59;;;;;;;;;0.00;0.00;;;;;26.80;41.74;99788.97;5054463;28;44750;-68
2021/08/06 08:03:24;;;;;;;;;0.67;0.00;;;;;26.83;41.57;99793.38;5054479;28;45390;-67
2021/08/06 08:05:50;;;;;;;;;0.00;0.00;;;;;26.87;42.02;99795.75;5054084;28;45990;-68
2021/08/06 08:08:15;;;;;;;;;0.00;0.00;;;;;26.88;41.68;99797.50;5055874;28;45045;-67
2021/08/06 08:10:40;;;;;;;;;0.00;0.00;;;;;26.90;41.92;99794.66;5055551;28;45802;-69
2021/08/06 08:13:06;;;;;;;;;0.00;0.00;;;;;26.92;41.81;99798.16;5056033;28;45526;-67
2021/08/06 08:15:31;;;;;;;;;0.00;0.00;;;;;26.94;41.70;99805.28;5054076;28;45922;-67
2021/08/06 08:17:58;;;;;;;;;0.00;0.00;;;;;26.94;42.03;99802.56;5054761;28;45532;-68
2021/08/06 08:20:24;;;;;;;;;0.00;0.00;;;;;26.97;41.84;99797.88;5053611;28;45478;-69
2021/08/06 08:22:50;;;;;;;;;0.00;0.00;;;;;27.03;41.19;99795.59;5055749;28;45420;-68
2021/08/06 08:25:15;;;;;;;;;0.00;0.00;;;;;27.05;41.38;99798.22;5053947;28;48238;-67
2021/08/06 08:27:41;;;;;;;;;0.00;0.00;;;;;27.07;41.57;99790.78;5053271;28;45531;-67
2021/08/06 08:30:08;;;;;;;;;0.00;0.00;;;;;27.09;41.04;99799.75;5055540;28;45367;-68
2021/08/06 08:32:34;;;;;;;;;0.00;0.00;;;;;27.12;41.72;99799.50;5039140;28;45812;-67
2021/08/06 08:35:00;;;;;;;;;0.00;0.00;;;;;27.12;41.00;99794.91;5049246;28;45463;-67
2021/08/06 08:37:25;;;;;;;;;0.00;0.00;;;;;27.13;41.56;99798.56;5054846;28;45447;-67
2021/08/06 08:39:51;;;;;;;;;0.00;0.00;;;;;27.16;41.22;99805.63;5053039;28;45542;-67
2021/08/06 08:42:19;;;;;;;;;0.00;0.00;;;;;27.16;41.26;99802.91;5053814;28;45581;-67
2021/08/06 08:44:45;;;;;;;;;0.00;0.00;;;;;27.19;41.43;99806.31;5051048;28;47930;-67
2021/08/06 08:47:10;;;;;;;;;0.00;0.00;;;;;27.21;41.00;99809.81;5053296;28;45784;-67
2021/08/06 08:49:37;;;;;;;;;0.00;0.00;;;;;27.24;40.93;99815.06;5057093;28;45818;-67
2021/08/06 08:52:04;;;;;;;;;0.00;0.00;;;;;27.27;40.81;99809.41;5075944;28;45388;-68
2021/08/06 08:54:30;;;;;;;;;0.00;0.00;;;;;27.29;40.56;99815.63;5055501;28;47590;-68
2021/08/06 08:56:56;;;;;;;;;0.00;0.00;;;;;27.31;40.57;99816.41;5055215;28;45606;-68
2021/08/06 08:59:21;;;;;;;;;0.00;0.00;;;;;27.34;40.68;99821.63;5045888;28;45812;-68
2021/08/06 09:01:47;;;;;;;;;0.00;0.00;;;;;27.38;40.48;99816.81;5067477;28;45873;-68
2021/08/06 09:04:28;;;;;;;;;0.00;0.00;;;;;27.41;40.88;99826.66;5056716;28;46473;-67
2021/08/06 09:06:55;;;;;;;;;0.00;0.00;;;;;27.43;41.11;99821.94;5073999;28;45399;-68
2021/08/06 09:09:22;;;;;;;;;0.00;0.00;;;;;27.44;40.93;99816.38;5069082;28;45905;-67
2021/08/06 09:12:11;;;;;;;;;0.00;0.00;;;;;27.50;40.44;99821.41;5074517;27;45436;-66
2021/08/06 09:14:38;;;;;;;;;0.00;0.00;;;;;27.53;40.69;99823.94;5072879;28;45370;-66
2021/08/06 09:17:13;;;;;;;;;0.00;0.00;;;;;27.57;40.77;99818.25;5073555;28;45513;-66
2021/08/06 09:19:44;;;;;;;;;0.00;0.00;;;;;27.60;40.87;99829.84;5056153;28;45442;-67
2021/08/06 09:22:15;;;;;;;;;0.00;0.00;;;;;27.63;40.82;99832.34;5069898;28;45409;-66
2021/08/06 09:25:09;;;;;;;;;0.00;0.00;;;;;27.66;40.17;99831.25;5072352;28;46209;-66
2021/08/06 09:27:47;;;;;;;;;0.00;0.00;;;;;27.69;40.00;99829.19;5049409;27;45697;-65
2021/08/06 09:30:51;;;;;;;;;0.00;0.00;;;;;27.73;40.26;99840.75;5054574;28;45573;-65
2021/08/06 09:33:30;;;;;;;;;0.00;0.00;;;;;27.73;40.72;99838.91;4970550;28;45417;-66
2021/08/06 09:36:12;;;;;;;;;0.00;0.00;;;;;27.77;40.53;99846.88;4970650;28;46209;-65
2021/08/06 09:38:38;;;;;;;;;0.00;0.00;;;;;27.79;39.91;99832.09;4971204;28;45010;-66
2021/08/06 09:41:03;;;;;;;;;0.00;0.00;;;;;27.81;40.21;99841.06;4971867;28;45982;-66
2021/08/06 09:43:29;;;;;;;;;0.00;0.00;;;;;27.83;39.83;99832.75;4970887;28;45558;-66
2021/08/06 09:45:54;;;;;;;;;0.00;0.00;;;;;27.86;40.05;99833.41;4965407;28;45387;-65
2021/08/06 09:48:27;;;;;;;;;0.67;0.00;;;;;27.89;39.63;99835.94;4968724;28;45590;-66
2021/08/06 09:50:55;;;;;;;;;0.00;0.00;;;;;27.90;40.23;99839.56;4970382;28;45471;-66
2021/08/06 09:53:26;;;;;;;;;0.00;0.00;;;;;27.93;40.11;99839.34;4955794;28;45584;-65
2021/08/06 09:55:52;;;;;;;;;0.00;0.00;;;;;27.96;39.59;99844.59;4957973;28;47284;-65
2021/08/06 09:58:22;;;;;;;;;0.00;0.00;;;;;27.99;39.51;99836.16;4973411;28;45586;-67
2021/08/06 10:00:50;;;;;;;;;0.00;0.00;;;;;28.02;40.07;99835.94;4950529;28;45535;-66
2021/08/06 10:03:35;;;;;;;;;0.00;0.00;;;;;28.05;39.84;99841.16;4976598;28;45574;-66
2021/08/06 10:06:09;;;;;;;;;0.00;0.00;;;;;28.08;39.56;99838.22;5041614;28;45512;-67
2021/08/06 10:08:36;;;;;;;;;0.00;0.00;;;;;28.10;39.14;99840.84;5032155;28;45528;-67
2021/08/06 10:11:02;;;;;;;;;0.00;0.00;;;;;28.13;39.92;99846.94;5036616;28;45469;-67
2021/08/06 10:13:27;;;;;;;;;0.00;0.00;;;;;28.15;39.56;99849.56;5036182;28;45507;-67
2021/08/06 10:15:53;;;;;;;;;0.00;0.00;;;;;28.18;39.63;99846.63;5035508;28;45488;-65
2021/08/06 10:18:18;;;;;;;;;0.00;0.00;;;;;28.18;39.84;99848.47;5022454;28;45388;-67
2021/08/06 10:20:47;;;;;;;;;0.00;0.00;;;;;28.21;39.60;99848.25;5017932;28;45417;-67
2021/08/06 10:23:13;;;;;;;;;0.00;0.00;;;;;28.22;39.13;99855.47;5028154;28;45389;-66
2021/08/06 10:25:39;;;;;;;;;0.00;0.00;;;;;28.24;39.45;99848.06;5035770;28;45505;-67
2021/08/06 10:28:05;;;;;;;;;0.00;0.00;;;;;28.25;39.55;99845.19;5042251;28;45414;-67
2021/08/06 10:30:35;;;;;;;;;0.00;0.00;;;;;28.28;39.72;99844.09;5035969;28;45464;-67
2021/08/06 10:33:24;;;;;;;;;0.00;0.00;;;;;28.30;39.59;99847.59;5037511;28;45537;-67
2021/08/06 10:36:02;;;;;;;;;0.33;0.33;;;;;28.31;39.50;99838.38;5036569;28;47160;-67
2021/08/06 10:38:45;;;;;;;;;0.00;0.00;;;;;28.31;39.26;99839.25;5036815;28;45539;-68
2021/08/06 10:41:20;;;;;;;;;0.00;0.00;;;;;28.34;39.07;99838.16;5038773;28;45603;-68
2021/08/06 10:44:00;;;;;;;;;0.00;0.00;;;;;28.37;39.01;99845.25;5040525;28;45488;-68
2021/08/06 10:46:32;;;;;;;;;0.00;0.00;;;;;28.36;40.05;99841.66;5055962;28;48592;-68
2021/08/06 10:49:09;;;;;;;;;0.00;0.00;;;;;28.38;39.37;99838.78;5055271;28;45383;-67
2021/08/06 10:51:34;;;;;;;;;0.00;0.00;;;;;28.40;39.57;99837.72;5057104;28;45478;-67
2021/08/06 10:54:03;;;;;;;;;0.00;0.00;;;;;28.41;39.55;99844.91;5069358;28;45708;-67
2021/08/06 10:56:32;;;;;;;;;0.00;0.00;;;;;28.43;39.71;99842.94;5067216;28;45709;-67
2021/08/06 10:59:02;;;;;;;;;0.00;0.00;;;;;28.45;40.06;99843.69;5057736;28;45487;-66
2021/08/06 11:01:31;;;;;;;;;0.00;0.00;;;;;28.48;40.07;99848.06;5058772;28;45400;-67
2021/08/06 11:03:58;;;;;;;;;0.00;0.00;;;;;28.52;40.41;99849.59;5060410;28;44990;-68
2021/08/06 11:06:34;;;;;;;;;0.67;0.67;;;;;28.53;39.98;99854.97;5057381;28;45687;-67
2021/08/06 11:09:00;;;;;;;;;0.00;0.00;;;;;28.57;39.99;99860.22;5056778;28;45551;-67
2021/08/06 11:11:44;;;;;;;;;0.00;0.00;;;;;28.61;40.18;99861.75;5071874;28;45411;-66
2021/08/06 11:14:11;;;;;;;;;0.00;0.00;;;;;28.63;40.19;99865.22;5077496;28;45575;-67
2021/08/06 11:16:59;;;;;;;;;0.00;0.00;;;;;28.67;40.19;99861.28;5060806;28;46954;-66
2021/08/06 11:19:52;;;;;;;;;0.00;0.00;;;;;28.69;39.66;99857.41;5036389;28;45426;-67
2021/08/06 11:22:18;;;;;;;;;0.67;0.00;;;;;28.72;40.19;99856.31;5036398;28;45449;-66
2021/08/06 11:24:49;;;;;;;;;0.00;0.00;;;;;28.74;39.41;99854.31;5038036;28;45371;-67
2021/08/06 11:27:16;;;;;;;;;0.00;0.00;;;;;28.77;39.61;99842.31;5052671;28;45590;-66
2021/08/06 11:29:43;;;;;;;;;0.00;0.00;;;;;28.79;39.32;99838.44;5045278;28;44950;-67
2021/08/06 11:32:14;;;;;;;;;0.00;0.00;;;;;28.82;39.59;99856.50;5054458;28;45294;-67
2021/08/06 11:34:59;;;;;;;;;0.00;0.00;;;;;28.84;39.61;99855.38;5055574;28;45515;-67
2021/08/06 11:37:28;;;;;;;;;0.00;0.00;;;;;28.86;39.58;99847.06;5053718;28;45558;-67
2021/08/06 11:40:11;;;;;;;;;0.00;0.00;;;;;28.86;39.63;99856.13;5056259;28;45428;-70